Terminal Aerodrome Forecast
Issued by NWS

Current Version | Previous Version | Graphics & Text | Print | Product List | Glossary On
Versions: 1 2 3 4 5 6 7 8 9 10 11 12 13 14 15 16 17 18 19 20 21 22 23 24
000
FTUS41 KPBZ 251400 AAA
TAFMGW
TAF AMD
KMGW 251432Z 2515/2612 21005KT 5SM BR BKN020
     FM251900 21004KT 2SM -RASN BR OVC006
     FM260300 VRB03KT 1SM -SN BR OVC004=

USA.gov is the U.S. government's official web portal to all federal, state and local government web resources and services.